createdAt,value
2023-01-09T00:02:12.966Z,106.2723
2023-01-09T00:17:15.392Z,33.61675
2023-01-09T00:32:17.699Z,4.33765
2023-01-09T00:47:19.911Z,0
2023-01-09T01:02:22.395Z,1.08441
2023-01-09T01:17:25.122Z,1.08441
2023-01-09T01:32:27.488Z,1.08441
2023-01-09T01:47:29.905Z,1.08441
2023-01-09T02:02:32.584Z,1.08441
2023-01-09T02:17:34.991Z,0
2023-01-09T02:32:37.379Z,1.08441
2023-01-09T02:47:39.736Z,1.08441
2023-01-09T03:02:42.176Z,1.08441
2023-01-09T03:17:44.642Z,1.08441
2023-01-09T03:32:46.947Z,1.08441
2023-01-09T03:47:49.723Z,1.08441
2023-01-09T04:02:53.536Z,1.08441
2023-01-09T04:17:55.869Z,1.08441
2023-01-09T04:32:58.268Z,1.08441
2023-01-09T04:48:00.930Z,1.08441
2023-01-09T05:03:03.220Z,1.08441
2023-01-09T05:18:05.525Z,1.08441
2023-01-09T05:33:07.912Z,1.08441
2023-01-09T05:48:10.328Z,1.08441
2023-01-09T06:03:12.696Z,1.08441
2023-01-09T06:18:15.346Z,1.08441
2023-01-09T06:33:17.672Z,1.08441
2023-01-09T06:48:20.047Z,1.08441
2023-01-09T07:03:22.394Z,1.08441
2023-01-09T07:18:24.815Z,1.08441
2023-01-09T07:33:27.146Z,1.08441
2023-01-09T07:48:29.720Z,1.08441
2023-01-09T08:03:32.213Z,1.08441
2023-01-09T08:18:34.506Z,1.08441
2023-01-09T08:33:37.739Z,1.08441
2023-01-09T08:48:41.025Z,1.08441
2023-01-09T09:03:43.363Z,1.08441
2023-01-09T09:18:45.631Z,1.08441
2023-01-09T09:33:47.960Z,1.08441
2023-01-09T09:48:50.262Z,1.08441
2023-01-09T10:03:52.691Z,1.08441
2023-01-09T10:18:55.088Z,1.08441
2023-01-09T10:33:57.453Z,1.08441
2023-01-09T10:48:59.735Z,1.08441
2023-01-09T11:04:02.143Z,1.08441
2023-01-09T11:19:04.557Z,1.08441
2023-01-09T11:34:06.823Z,1.08441
2023-01-09T11:49:09.167Z,1.08441
2023-01-09T12:04:11.570Z,1.08441
2023-01-09T12:19:15.298Z,1.08441
2023-01-09T12:34:17.625Z,1.08441
2023-01-09T12:49:19.890Z,1.08441
2023-01-09T13:04:22.200Z,1.08441
2023-01-09T13:19:24.558Z,1.08441
2023-01-09T13:34:26.995Z,1.08441
2023-01-09T13:49:29.321Z,1.08441
2023-01-09T14:04:31.588Z,1.08441
2023-01-09T14:19:33.950Z,1.08441
2023-01-09T14:34:36.304Z,0
2023-01-09T14:49:38.610Z,0
2023-01-09T15:04:40.968Z,0
2023-01-09T15:19:43.359Z,3.25323
2023-01-09T15:34:45.670Z,29.2791
2023-01-09T15:49:47.969Z,158.32405
2023-01-09T16:04:50.328Z,532.44592
2023-01-09T16:19:52.834Z,1131.04089
2023-01-09T16:34:55.130Z,2210.03027
2023-01-09T16:49:57.477Z,3212.02612
2023-01-09T17:04:59.828Z,5053.35645
2023-01-09T17:20:02.132Z,5850.39893
2023-01-09T17:35:04.486Z,9351.96289
2023-01-09T17:50:06.869Z,7315.43848
2023-01-09T18:05:09.351Z,12903.40918
2023-01-09T18:20:11.679Z,15346.58789
2023-01-09T18:35:14.115Z,13161.49902
2023-01-09T18:50:16.709Z,16735.71875
2023-01-09T19:05:19.094Z,7005.29688
2023-01-09T19:20:21.340Z,7512.80127
2023-01-09T19:35:23.776Z,9015.79492
2023-01-09T19:50:26.264Z,7893.42969
2023-01-09T20:05:28.853Z,6831.79102
2023-01-09T20:20:31.183Z,5736.53564
2023-01-09T20:35:33.558Z,5368.91992
2023-01-09T20:50:35.982Z,4886.35693
2023-01-09T21:05:38.323Z,4797.43555
2023-01-09T21:20:40.712Z,3928.82202
2023-01-09T21:35:43.050Z,3326.97388
2023-01-09T21:50:45.420Z,2438.84082
2023-01-09T22:05:47.734Z,1924.82996
2023-01-09T22:20:49.980Z,1261.17029
2023-01-09T22:35:52.314Z,913.07428
2023-01-09T22:50:54.705Z,846.92517
2023-01-09T23:05:56.976Z,749.32819
2023-01-09T23:20:59.453Z,651.73114
2023-01-09T23:36:01.802Z,238.57048
2023-01-09T23:51:04.097Z,239.65489
